sensor_id;sensor_type;location;lat;lon;timestamp;temperature;humidity
20141;DHT22;10231;47.702;9.826;2023-01-08T00:01:42;2.40;99.90
20141;DHT22;10231;47.702;9.826;2023-01-08T00:04:08;2.50;99.90
20141;DHT22;10231;47.702;9.826;2023-01-08T00:06:33;2.50;99.90
20141;DHT22;10231;47.702;9.826;2023-01-08T00:08:59;2.50;99.90
20141;DHT22;10231;47.702;9.826;2023-01-08T00:11:25;2.30;99.90
20141;DHT22;10231;47.702;9.826;2023-01-08T00:13:50;2.30;99.90
20141;DHT22;10231;47.702;9.826;2023-01-08T00:16:17;2.30;99.90
20141;DHT22;10231;47.702;9.826;2023-01-08T00:18:44;2.30;99.90
20141;DHT22;10231;47.702;9.826;2023-01-08T00:21:10;2.30;99.90
20141;DHT22;10231;47.702;9.826;2023-01-08T00:23:36;2.40;99.90
20141;DHT22;10231;47.702;9.826;2023-01-08T00:26:12;2.30;99.90
20141;DHT22;10231;47.702;9.826;2023-01-08T00:28:38;2.20;99.90
20141;DHT22;10231;47.702;9.826;2023-01-08T00:31:08;2.20;99.90
20141;DHT22;10231;47.702;9.826;2023-01-08T00:33:35;2.20;99.90
20141;DHT22;10231;47.702;9.826;2023-01-08T00:36:06;2.20;99.90
20141;DHT22;10231;47.702;9.826;2023-01-08T00:38:33;2.20;99.90
20141;DHT22;10231;47.702;9.826;2023-01-08T00:40:58;2.20;99.90
20141;DHT22;10231;47.702;9.826;2023-01-08T00:43:24;2.20;99.90
20141;DHT22;10231;47.702;9.826;2023-01-08T00:45:49;2.20;99.90
20141;DHT22;10231;47.702;9.826;2023-01-08T00:48:19;2.30;99.90
20141;DHT22;10231;47.702;9.826;2023-01-08T00:50:47;2.20;99.90
20141;DHT22;10231;47.702;9.826;2023-01-08T00:53:13;2.10;99.90
20141;DHT22;10231;47.702;9.826;2023-01-08T00:55:38;2.30;99.90
20141;DHT22;10231;47.702;9.826;2023-01-08T00:58:04;2.40;99.90
20141;DHT22;10231;47.702;9.826;2023-01-08T01:00:29;2.30;99.90
20141;DHT22;10231;47.702;9.826;2023-01-08T01:02:55;2.30;99.90
20141;DHT22;10231;47.702;9.826;2023-01-08T01:05:20;2.20;99.90
20141;DHT22;10231;47.702;9.826;2023-01-08T01:07:46;2.10;99.90
20141;DHT22;10231;47.702;9.826;2023-01-08T01:10:13;2.20;99.90
20141;DHT22;10231;47.702;9.826;2023-01-08T01:12:39;2.10;99.90
20141;DHT22;10231;47.702;9.826;2023-01-08T01:15:06;2.10;99.90
20141;DHT22;10231;47.702;9.826;2023-01-08T01:17:32;2.10;99.90
20141;DHT22;10231;47.702;9.826;2023-01-08T01:19:58;2.20;99.90
20141;DHT22;10231;47.702;9.826;2023-01-08T01:22:24;2.20;99.90
20141;DHT22;10231;47.702;9.826;2023-01-08T01:24:49;2.10;99.90
20141;DHT22;10231;47.702;9.826;2023-01-08T01:27:15;2.10;99.90
20141;DHT22;10231;47.702;9.826;2023-01-08T01:29:40;2.10;99.90
20141;DHT22;10231;47.702;9.826;2023-01-08T01:32:07;2.10;99.90
20141;DHT22;10231;47.702;9.826;2023-01-08T01:34:33;2.10;99.90
20141;DHT22;10231;47.702;9.826;2023-01-08T01:36:59;2.20;99.90
20141;DHT22;10231;47.702;9.826;2023-01-08T01:39:24;2.30;99.90
20141;DHT22;10231;47.702;9.826;2023-01-08T01:41:50;2.30;99.90
20141;DHT22;10231;47.702;9.826;2023-01-08T01:44:45;2.20;99.90
20141;DHT22;10231;47.702;9.826;2023-01-08T01:52:29;2.10;99.90
20141;DHT22;10231;47.702;9.826;2023-01-08T01:54:59;2.10;99.90
20141;DHT22;10231;47.702;9.826;2023-01-08T01:57:25;2.10;99.90
20141;DHT22;10231;47.702;9.826;2023-01-08T01:59:52;2.10;99.90
20141;DHT22;10231;47.702;9.826;2023-01-08T02:02:18;2.10;99.90
20141;DHT22;10231;47.702;9.826;2023-01-08T02:04:44;2.00;99.90
20141;DHT22;10231;47.702;9.826;2023-01-08T02:07:21;2.00;99.90
20141;DHT22;10231;47.702;9.826;2023-01-08T02:12:41;2.10;99.90
20141;DHT22;10231;47.702;9.826;2023-01-08T02:15:18;2.10;99.90
20141;DHT22;10231;47.702;9.826;2023-01-08T02:17:52;2.20;99.90
20141;DHT22;10231;47.702;9.826;2023-01-08T02:20:35;2.20;99.90
20141;DHT22;10231;47.702;9.826;2023-01-08T02:23:20;2.10;99.90
20141;DHT22;10231;47.702;9.826;2023-01-08T02:28:23;2.00;99.90
20141;DHT22;10231;47.702;9.826;2023-01-08T02:30:50;1.90;99.90
20141;DHT22;10231;47.702;9.826;2023-01-08T02:33:16;1.90;99.90
20141;DHT22;10231;47.702;9.826;2023-01-08T02:38:52;2.00;99.90
20141;DHT22;10231;47.702;9.826;2023-01-08T02:41:27;2.00;99.90
20141;DHT22;10231;47.702;9.826;2023-01-08T02:43:57;2.00;99.90
20141;DHT22;10231;47.702;9.826;2023-01-08T02:46:27;2.00;99.90
20141;DHT22;10231;47.702;9.826;2023-01-08T02:48:59;2.10;99.90
20141;DHT22;10231;47.702;9.826;2023-01-08T02:51:33;2.00;99.90
20141;DHT22;10231;47.702;9.826;2023-01-08T02:54:04;2.00;99.90
20141;DHT22;10231;47.702;9.826;2023-01-08T02:56:35;1.90;99.90
20141;DHT22;10231;47.702;9.826;2023-01-08T02:59:02;1.90;99.90
20141;DHT22;10231;47.702;9.826;2023-01-08T03:01:30;2.00;99.90
20141;DHT22;10231;47.702;9.826;2023-01-08T03:04:03;1.90;99.90
20141;DHT22;10231;47.702;9.826;2023-01-08T03:06:31;1.90;99.90
20141;DHT22;10231;47.702;9.826;2023-01-08T03:08:59;2.00;99.90
20141;DHT22;10231;47.702;9.826;2023-01-08T03:11:30;2.00;99.90
20141;DHT22;10231;47.702;9.826;2023-01-08T03:16:48;1.90;99.90
20141;DHT22;10231;47.702;9.826;2023-01-08T03:19:27;1.90;99.90
20141;DHT22;10231;47.702;9.826;2023-01-08T03:21:55;2.00;99.90
20141;DHT22;10231;47.702;9.826;2023-01-08T03:24:26;1.90;99.90
20141;DHT22;10231;47.702;9.826;2023-01-08T03:26:56;2.00;99.90
20141;DHT22;10231;47.702;9.826;2023-01-08T03:29:23;1.90;99.90
20141;DHT22;10231;47.702;9.826;2023-01-08T03:31:52;1.90;99.90
20141;DHT22;10231;47.702;9.826;2023-01-08T03:34:20;2.10;99.90
20141;DHT22;10231;47.702;9.826;2023-01-08T03:36:50;2.00;99.90
20141;DHT22;10231;47.702;9.826;2023-01-08T03:39:20;1.90;99.90
20141;DHT22;10231;47.702;9.826;2023-01-08T03:41:48;1.80;99.90
20141;DHT22;10231;47.702;9.826;2023-01-08T03:44:14;1.90;99.90
20141;DHT22;10231;47.702;9.826;2023-01-08T03:46:44;1.80;99.90
20141;DHT22;10231;47.702;9.826;2023-01-08T03:49:11;1.80;99.90
20141;DHT22;10231;47.702;9.826;2023-01-08T03:51:44;1.80;99.90
20141;DHT22;10231;47.702;9.826;2023-01-08T03:54:15;1.80;99.90
20141;DHT22;10231;47.702;9.826;2023-01-08T03:56:41;1.90;99.90
20141;DHT22;10231;47.702;9.826;2023-01-08T03:59:07;1.90;99.90
20141;DHT22;10231;47.702;9.826;2023-01-08T04:01:33;1.90;99.90
20141;DHT22;10231;47.702;9.826;2023-01-08T04:03:58;2.00;99.90
20141;DHT22;10231;47.702;9.826;2023-01-08T04:06:24;2.00;99.90
20141;DHT22;10231;47.702;9.826;2023-01-08T04:08:49;2.00;99.90
20141;DHT22;10231;47.702;9.826;2023-01-08T04:11:15;1.90;99.90
20141;DHT22;10231;47.702;9.826;2023-01-08T04:13:41;1.70;99.90
20141;DHT22;10231;47.702;9.826;2023-01-08T04:16:06;1.70;99.90
20141;DHT22;10231;47.702;9.826;2023-01-08T04:18:33;1.70;99.90
20141;DHT22;10231;47.702;9.826;2023-01-08T04:20:59;1.80;99.90
20141;DHT22;10231;47.702;9.826;2023-01-08T04:23:24;1.80;99.90
20141;DHT22;10231;47.702;9.826;2023-01-08T04:25:51;1.90;99.90
20141;DHT22;10231;47.702;9.826;2023-01-08T04:28:16;2.00;99.90
20141;DHT22;10231;47.702;9.826;2023-01-08T04:30:42;2.00;99.90
20141;DHT22;10231;47.702;9.826;2023-01-08T04:33:08;2.00;99.90
20141;DHT22;10231;47.702;9.826;2023-01-08T04:35:33;2.10;99.90
20141;DHT22;10231;47.702;9.826;2023-01-08T04:37:59;2.10;99.90
20141;DHT22;10231;47.702;9.826;2023-01-08T04:40:24;2.20;99.90
20141;DHT22;10231;47.702;9.826;2023-01-08T04:42:50;2.20;99.90
20141;DHT22;10231;47.702;9.826;2023-01-08T04:45:16;2.10;99.90
20141;DHT22;10231;47.702;9.826;2023-01-08T04:47:41;2.00;99.90
20141;DHT22;10231;47.702;9.826;2023-01-08T04:50:07;1.90;99.90
20141;DHT22;10231;47.702;9.826;2023-01-08T04:52:33;1.90;99.90
20141;DHT22;10231;47.702;9.826;2023-01-08T04:54:58;1.90;99.90
20141;DHT22;10231;47.702;9.826;2023-01-08T04:57:24;1.90;99.90
20141;DHT22;10231;47.702;9.826;2023-01-08T04:59:49;2.00;99.90
20141;DHT22;10231;47.702;9.826;2023-01-08T05:02:15;2.10;99.90
20141;DHT22;10231;47.702;9.826;2023-01-08T05:04:40;2.10;99.90
20141;DHT22;10231;47.702;9.826;2023-01-08T05:07:06;2.00;99.90
20141;DHT22;10231;47.702;9.826;2023-01-08T05:09:32;2.00;99.90
20141;DHT22;10231;47.702;9.826;2023-01-08T05:11:58;2.00;99.90
20141;DHT22;10231;47.702;9.826;2023-01-08T05:14:23;2.10;99.90
20141;DHT22;10231;47.702;9.826;2023-01-08T05:16:49;2.10;99.90
20141;DHT22;10231;47.702;9.826;2023-01-08T05:19:15;2.20;99.90
20141;DHT22;10231;47.702;9.826;2023-01-08T05:21:40;2.30;99.90
20141;DHT22;10231;47.702;9.826;2023-01-08T05:24:06;2.40;99.90
20141;DHT22;10231;47.702;9.826;2023-01-08T05:26:33;2.30;99.90
20141;DHT22;10231;47.702;9.826;2023-01-08T05:28:59;2.30;99.90
20141;DHT22;10231;47.702;9.826;2023-01-08T05:31:24;2.30;99.90
20141;DHT22;10231;47.702;9.826;2023-01-08T05:33:50;2.30;99.90
20141;DHT22;10231;47.702;9.826;2023-01-08T05:36:16;2.30;99.90
20141;DHT22;10231;47.702;9.826;2023-01-08T05:38:41;2.40;99.90
20141;DHT22;10231;47.702;9.826;2023-01-08T05:41:07;2.30;99.90
20141;DHT22;10231;47.702;9.826;2023-01-08T05:43:34;2.40;99.90
20141;DHT22;10231;47.702;9.826;2023-01-08T05:46:01;2.30;99.90
20141;DHT22;10231;47.702;9.826;2023-01-08T05:48:27;2.30;99.90
20141;DHT22;10231;47.702;9.826;2023-01-08T05:50:53;2.20;99.90
20141;DHT22;10231;47.702;9.826;2023-01-08T05:53:19;2.30;99.90
20141;DHT22;10231;47.702;9.826;2023-01-08T05:55:44;2.30;99.90
20141;DHT22;10231;47.702;9.826;2023-01-08T05:58:10;2.30;99.90
20141;DHT22;10231;47.702;9.826;2023-01-08T06:00:37;2.30;99.90
20141;DHT22;10231;47.702;9.826;2023-01-08T06:03:03;2.30;99.90
20141;DHT22;10231;47.702;9.826;2023-01-08T06:05:30;2.30;99.90
20141;DHT22;10231;47.702;9.826;2023-01-08T06:07:57;2.30;99.90
20141;DHT22;10231;47.702;9.826;2023-01-08T06:10:23;2.40;99.90
20141;DHT22;10231;47.702;9.826;2023-01-08T06:12:48;2.40;99.90
20141;DHT22;10231;47.702;9.826;2023-01-08T06:15:14;2.40;99.90
20141;DHT22;10231;47.702;9.826;2023-01-08T06:17:40;2.50;99.90
20141;DHT22;10231;47.702;9.826;2023-01-08T06:20:06;2.60;99.90
20141;DHT22;10231;47.702;9.826;2023-01-08T06:22:32;2.50;99.90
20141;DHT22;10231;47.702;9.826;2023-01-08T06:24:58;2.50;99.90
20141;DHT22;10231;47.702;9.826;2023-01-08T06:27:23;2.40;99.90
20141;DHT22;10231;47.702;9.826;2023-01-08T06:29:49;2.40;99.90
20141;DHT22;10231;47.702;9.826;2023-01-08T06:32:14;2.50;99.90
20141;DHT22;10231;47.702;9.826;2023-01-08T06:34:40;2.50;99.90
20141;DHT22;10231;47.702;9.826;2023-01-08T06:37:05;2.50;99.90
20141;DHT22;10231;47.702;9.826;2023-01-08T06:39:31;2.40;99.90
20141;DHT22;10231;47.702;9.826;2023-01-08T06:41:57;2.40;99.90
20141;DHT22;10231;47.702;9.826;2023-01-08T06:44:22;2.40;99.90
20141;DHT22;10231;47.702;9.826;2023-01-08T06:46:48;2.40;99.90
20141;DHT22;10231;47.702;9.826;2023-01-08T06:49:13;2.50;99.90
20141;DHT22;10231;47.702;9.826;2023-01-08T06:51:39;2.50;99.90
20141;DHT22;10231;47.702;9.826;2023-01-08T06:54:05;2.40;99.90
20141;DHT22;10231;47.702;9.826;2023-01-08T06:56:30;2.50;99.90
20141;DHT22;10231;47.702;9.826;2023-01-08T06:58:56;2.60;99.90
20141;DHT22;10231;47.702;9.826;2023-01-08T07:01:21;2.60;99.90
20141;DHT22;10231;47.702;9.826;2023-01-08T07:03:47;2.50;99.90
20141;DHT22;10231;47.702;9.826;2023-01-08T07:06:18;2.60;99.90
20141;DHT22;10231;47.702;9.826;2023-01-08T07:08:45;2.60;99.90
20141;DHT22;10231;47.702;9.826;2023-01-08T07:11:12;2.60;99.90
20141;DHT22;10231;47.702;9.826;2023-01-08T07:13:37;2.60;99.90
20141;DHT22;10231;47.702;9.826;2023-01-08T07:16:07;2.60;99.90
20141;DHT22;10231;47.702;9.826;2023-01-08T07:18:33;2.60;99.90
20141;DHT22;10231;47.702;9.826;2023-01-08T07:20:59;2.60;99.90
20141;DHT22;10231;47.702;9.826;2023-01-08T07:23:24;2.60;99.90
20141;DHT22;10231;47.702;9.826;2023-01-08T07:25:50;2.60;99.90
20141;DHT22;10231;47.702;9.826;2023-01-08T07:28:15;2.70;99.90
20141;DHT22;10231;47.702;9.826;2023-01-08T07:30:41;2.70;99.90
20141;DHT22;10231;47.702;9.826;2023-01-08T07:33:07;2.70;99.90
20141;DHT22;10231;47.702;9.826;2023-01-08T07:35:33;2.70;99.90
20141;DHT22;10231;47.702;9.826;2023-01-08T07:37:59;2.70;99.90
20141;DHT22;10231;47.702;9.826;2023-01-08T07:40:25;2.60;99.90
20141;DHT22;10231;47.702;9.826;2023-01-08T07:43:01;2.70;99.90
20141;DHT22;10231;47.702;9.826;2023-01-08T07:45:28;2.70;99.90
20141;DHT22;10231;47.702;9.826;2023-01-08T07:47:56;2.70;99.90
20141;DHT22;10231;47.702;9.826;2023-01-08T07:50:22;2.60;99.90
20141;DHT22;10231;47.702;9.826;2023-01-08T07:52:47;2.60;99.90
20141;DHT22;10231;47.702;9.826;2023-01-08T07:55:13;2.60;99.90
20141;DHT22;10231;47.702;9.826;2023-01-08T07:57:38;2.60;99.90
20141;DHT22;10231;47.702;9.826;2023-01-08T08:00:05;2.70;99.90
20141;DHT22;10231;47.702;9.826;2023-01-08T08:02:30;2.80;99.90
20141;DHT22;10231;47.702;9.826;2023-01-08T08:04:56;2.80;99.90
20141;DHT22;10231;47.702;9.826;2023-01-08T08:07:21;2.80;99.90
20141;DHT22;10231;47.702;9.826;2023-01-08T08:09:47;2.80;99.90
20141;DHT22;10231;47.702;9.826;2023-01-08T08:12:12;2.80;99.90
20141;DHT22;10231;47.702;9.826;2023-01-08T08:14:38;2.90;99.90
20141;DHT22;10231;47.702;9.826;2023-01-08T08:17:04;3.00;99.90
20141;DHT22;10231;47.702;9.826;2023-01-08T08:19:29;2.90;99.90
20141;DHT22;10231;47.702;9.826;2023-01-08T08:21:55;2.90;99.90
20141;DHT22;10231;47.702;9.826;2023-01-08T08:24:20;2.90;99.90
20141;DHT22;10231;47.702;9.826;2023-01-08T08:26:46;2.80;99.90
20141;DHT22;10231;47.702;9.826;2023-01-08T08:29:11;2.80;99.90
20141;DHT22;10231;47.702;9.826;2023-01-08T08:31:37;2.90;99.90
20141;DHT22;10231;47.702;9.826;2023-01-08T08:34:02;2.90;99.90
20141;DHT22;10231;47.702;9.826;2023-01-08T08:36:29;3.00;99.90
20141;DHT22;10231;47.702;9.826;2023-01-08T08:38:54;3.10;99.90
20141;DHT22;10231;47.702;9.826;2023-01-08T08:41:20;3.20;99.90
20141;DHT22;10231;47.702;9.826;2023-01-08T08:43:46;3.30;99.90
20141;DHT22;10231;47.702;9.826;2023-01-08T08:46:11;3.30;99.90
20141;DHT22;10231;47.702;9.826;2023-01-08T08:48:37;3.30;99.90
20141;DHT22;10231;47.702;9.826;2023-01-08T08:51:03;3.50;99.90
20141;DHT22;10231;47.702;9.826;2023-01-08T08:53:28;3.50;99.90
20141;DHT22;10231;47.702;9.826;2023-01-08T08:56:00;3.60;99.90
20141;DHT22;10231;47.702;9.826;2023-01-08T08:58:26;3.70;99.90
20141;DHT22;10231;47.702;9.826;2023-01-08T09:00:52;3.70;99.90
20141;DHT22;10231;47.702;9.826;2023-01-08T09:03:17;3.70;99.90
20141;DHT22;10231;47.702;9.826;2023-01-08T09:05:43;3.70;99.90
20141;DHT22;10231;47.702;9.826;2023-01-08T09:08:10;3.70;99.90
20141;DHT22;10231;47.702;9.826;2023-01-08T09:10:37;3.70;99.90
20141;DHT22;10231;47.702;9.826;2023-01-08T09:13:03;3.70;99.90
20141;DHT22;10231;47.702;9.826;2023-01-08T09:15:28;3.70;99.90
20141;DHT22;10231;47.702;9.826;2023-01-08T09:17:55;3.60;99.90
20141;DHT22;10231;47.702;9.826;2023-01-08T09:20:22;3.70;99.90
20141;DHT22;10231;47.702;9.826;2023-01-08T09:22:48;3.70;99.90
20141;DHT22;10231;47.702;9.826;2023-01-08T09:25:14;3.80;99.90
20141;DHT22;10231;47.702;9.826;2023-01-08T09:27:39;3.90;99.90
20141;DHT22;10231;47.702;9.826;2023-01-08T09:30:05;3.80;99.90
20141;DHT22;10231;47.702;9.826;2023-01-08T09:32:31;3.80;99.90
20141;DHT22;10231;47.702;9.826;2023-01-08T09:34:56;3.90;99.90
20141;DHT22;10231;47.702;9.826;2023-01-08T09:37:22;4.00;99.90
20141;DHT22;10231;47.702;9.826;2023-01-08T09:39:49;4.10;99.90
20141;DHT22;10231;47.702;9.826;2023-01-08T09:42:17;4.10;99.90
20141;DHT22;10231;47.702;9.826;2023-01-08T09:44:45;4.10;99.90
20141;DHT22;10231;47.702;9.826;2023-01-08T09:47:24;4.20;99.90
20141;DHT22;10231;47.702;9.826;2023-01-08T09:49:53;4.30;99.90
20141;DHT22;10231;47.702;9.826;2023-01-08T09:52:19;4.30;99.90
20141;DHT22;10231;47.702;9.826;2023-01-08T09:54:45;4.40;99.90
20141;DHT22;10231;47.702;9.826;2023-01-08T09:57:17;4.50;99.90
20141;DHT22;10231;47.702;9.826;2023-01-08T09:59:43;4.50;99.90
20141;DHT22;10231;47.702;9.826;2023-01-08T10:02:23;4.60;99.90
20141;DHT22;10231;47.702;9.826;2023-01-08T10:04:55;4.70;99.90
20141;DHT22;10231;47.702;9.826;2023-01-08T10:07:23;4.70;99.90
20141;DHT22;10231;47.702;9.826;2023-01-08T10:09:50;4.70;99.90
20141;DHT22;10231;47.702;9.826;2023-01-08T10:12:28;4.80;99.90
20141;DHT22;10231;47.702;9.826;2023-01-08T10:15:01;4.80;99.90
20141;DHT22;10231;47.702;9.826;2023-01-08T10:17:29;4.90;99.90
20141;DHT22;10231;47.702;9.826;2023-01-08T10:19:56;5.00;99.90
20141;DHT22;10231;47.702;9.826;2023-01-08T10:22:24;5.00;99.90
20141;DHT22;10231;47.702;9.826;2023-01-08T10:24:52;5.00;99.90
20141;DHT22;10231;47.702;9.826;2023-01-08T10:27:27;5.10;99.90
20141;DHT22;10231;47.702;9.826;2023-01-08T10:30:04;5.10;99.90
20141;DHT22;10231;47.702;9.826;2023-01-08T10:32:31;5.10;99.90
20141;DHT22;10231;47.702;9.826;2023-01-08T10:35:03;5.20;99.90
20141;DHT22;10231;47.702;9.826;2023-01-08T10:37:40;5.30;99.90
20141;DHT22;10231;47.702;9.826;2023-01-08T10:43:10;5.30;99.90
20141;DHT22;10231;47.702;9.826;2023-01-08T10:45:37;5.40;99.90
20141;DHT22;10231;47.702;9.826;2023-01-08T10:48:05;5.40;99.90
20141;DHT22;10231;47.702;9.826;2023-01-08T10:50:33;5.40;99.90
20141;DHT22;10231;47.702;9.826;2023-01-08T10:53:04;5.50;99.90
20141;DHT22;10231;47.702;9.826;2023-01-08T10:55:32;5.40;99.90
20141;DHT22;10231;47.702;9.826;2023-01-08T10:58:04;5.50;99.90
20141;DHT22;10231;47.702;9.826;2023-01-08T11:00:37;5.50;99.90
20141;DHT22;10231;47.702;9.826;2023-01-08T11:03:14;5.50;99.90
20141;DHT22;10231;47.702;9.826;2023-01-08T11:05:42;5.50;99.90
20141;DHT22;10231;47.702;9.826;2023-01-08T11:08:15;5.60;99.90
20141;DHT22;10231;47.702;9.826;2023-01-08T11:10:42;5.60;99.90
20141;DHT22;10231;47.702;9.826;2023-01-08T11:13:18;5.60;99.90
20141;DHT22;10231;47.702;9.826;2023-01-08T11:15:44;5.60;99.90
20141;DHT22;10231;47.702;9.826;2023-01-08T11:18:22;5.60;99.90
20141;DHT22;10231;47.702;9.826;2023-01-08T11:20:49;5.60;99.90
20141;DHT22;10231;47.702;9.826;2023-01-08T11:23:19;5.70;99.90
20141;DHT22;10231;47.702;9.826;2023-01-08T11:26:05;5.70;99.90
20141;DHT22;10231;47.702;9.826;2023-01-08T11:31:37;5.70;99.90
20141;DHT22;10231;47.702;9.826;2023-01-08T11:36:58;5.80;99.90
20141;DHT22;10231;47.702;9.826;2023-01-08T11:39:26;5.80;99.90
20141;DHT22;10231;47.702;9.826;2023-01-08T11:42:10;5.80;99.90
20141;DHT22;10231;47.702;9.826;2023-01-08T11:47:24;5.90;99.90
20141;DHT22;10231;47.702;9.826;2023-01-08T11:52:44;6.00;99.90
20141;DHT22;10231;47.702;9.826;2023-01-08T12:03:45;6.10;99.90
20141;DHT22;10231;47.702;9.826;2023-01-08T12:11:35;6.10;99.90
20141;DHT22;10231;47.702;9.826;2023-01-08T12:19:49;6.10;99.90
20141;DHT22;10231;47.702;9.826;2023-01-08T12:22:34;6.00;99.90
20141;DHT22;10231;47.702;9.826;2023-01-08T12:27:57;6.10;99.90
20141;DHT22;10231;47.702;9.826;2023-01-08T12:33:03;6.10;99.90
20141;DHT22;10231;47.702;9.826;2023-01-08T12:35:42;6.10;99.90
20141;DHT22;10231;47.702;9.826;2023-01-08T12:38:14;6.10;99.90
20141;DHT22;10231;47.702;9.826;2023-01-08T12:40:45;6.20;99.90
20141;DHT22;10231;47.702;9.826;2023-01-08T12:43:21;6.20;99.90
20141;DHT22;10231;47.702;9.826;2023-01-08T12:45:51;6.30;99.90
20141;DHT22;10231;47.702;9.826;2023-01-08T12:48:20;6.30;99.90
20141;DHT22;10231;47.702;9.826;2023-01-08T12:59:03;6.40;99.90
20141;DHT22;10231;47.702;9.826;2023-01-08T13:01:42;6.50;99.90
20141;DHT22;10231;47.702;9.826;2023-01-08T13:04:10;6.60;99.90
20141;DHT22;10231;47.702;9.826;2023-01-08T13:06:36;6.60;99.90
20141;DHT22;10231;47.702;9.826;2023-01-08T13:09:03;6.70;99.90
20141;DHT22;10231;47.702;9.826;2023-01-08T13:11:34;6.70;99.90
20141;DHT22;10231;47.702;9.826;2023-01-08T13:14:08;6.70;99.90
20141;DHT22;10231;47.702;9.826;2023-01-08T13:16:45;6.70;99.90
20141;DHT22;10231;47.702;9.826;2023-01-08T13:19:29;6.70;99.90
20141;DHT22;10231;47.702;9.826;2023-01-08T13:21:57;6.70;99.90
20141;DHT22;10231;47.702;9.826;2023-01-08T13:24:33;6.60;99.90
20141;DHT22;10231;47.702;9.826;2023-01-08T13:29:43;6.60;99.90
20141;DHT22;10231;47.702;9.826;2023-01-08T13:32:45;6.60;99.90
20141;DHT22;10231;47.702;9.826;2023-01-08T13:37:39;6.60;99.90
20141;DHT22;10231;47.702;9.826;2023-01-08T13:42:59;6.60;99.90
20141;DHT22;10231;47.702;9.826;2023-01-08T13:45:26;6.60;99.90
20141;DHT22;10231;47.702;9.826;2023-01-08T13:47:54;6.60;99.90
20141;DHT22;10231;47.702;9.826;2023-01-08T13:50:22;6.60;99.90
20141;DHT22;10231;47.702;9.826;2023-01-08T13:53:00;6.60;99.90
20141;DHT22;10231;47.702;9.826;2023-01-08T13:55:32;6.60;99.90
20141;DHT22;10231;47.702;9.826;2023-01-08T13:58:00;6.60;99.90
20141;DHT22;10231;47.702;9.826;2023-01-08T14:00:43;6.60;99.90
20141;DHT22;10231;47.702;9.826;2023-01-08T14:05:46;6.60;99.90
20141;DHT22;10231;47.702;9.826;2023-01-08T14:08:22;6.60;99.90
20141;DHT22;10231;47.702;9.826;2023-01-08T14:10:48;6.60;99.90
20141;DHT22;10231;47.702;9.826;2023-01-08T14:13:15;6.60;99.90
20141;DHT22;10231;47.702;9.826;2023-01-08T14:15:42;6.60;99.90
20141;DHT22;10231;47.702;9.826;2023-01-08T14:18:11;6.60;99.90
20141;DHT22;10231;47.702;9.826;2023-01-08T14:20:39;6.60;99.90
20141;DHT22;10231;47.702;9.826;2023-01-08T14:23:12;6.60;99.90
20141;DHT22;10231;47.702;9.826;2023-01-08T14:25:40;6.60;99.90
20141;DHT22;10231;47.702;9.826;2023-01-08T14:28:06;6.60;99.90
20141;DHT22;10231;47.702;9.826;2023-01-08T14:30:32;6.60;99.90
20141;DHT22;10231;47.702;9.826;2023-01-08T14:32:58;6.60;99.90
20141;DHT22;10231;47.702;9.826;2023-01-08T14:35:30;6.60;99.90
20141;DHT22;10231;47.702;9.826;2023-01-08T14:37:57;6.60;99.90
20141;DHT22;10231;47.702;9.826;2023-01-08T14:40:28;6.60;99.90
20141;DHT22;10231;47.702;9.826;2023-01-08T14:42:55;6.60;99.90
20141;DHT22;10231;47.702;9.826;2023-01-08T14:45:29;6.60;99.90
20141;DHT22;10231;47.702;9.826;2023-01-08T14:48:14;6.60;99.90
20141;DHT22;10231;47.702;9.826;2023-01-08T14:51:25;6.60;99.90
20141;DHT22;10231;47.702;9.826;2023-01-08T14:53:47;6.60;99.90
20141;DHT22;10231;47.702;9.826;2023-01-08T14:56:16;6.60;99.90
20141;DHT22;10231;47.702;9.826;2023-01-08T14:58:44;6.60;99.90
20141;DHT22;10231;47.702;9.826;2023-01-08T15:01:15;6.60;99.90
20141;DHT22;10231;47.702;9.826;2023-01-08T15:03:45;6.60;99.90
20141;DHT22;10231;47.702;9.826;2023-01-08T15:06:22;6.60;99.90
20141;DHT22;10231;47.702;9.826;2023-01-08T15:08:47;6.60;99.90
20141;DHT22;10231;47.702;9.826;2023-01-08T15:11:31;6.60;99.90
20141;DHT22;10231;47.702;9.826;2023-01-08T15:13:59;6.60;99.90
20141;DHT22;10231;47.702;9.826;2023-01-08T15:16:30;6.60;99.90
20141;DHT22;10231;47.702;9.826;2023-01-08T15:21:39;6.60;99.90
20141;DHT22;10231;47.702;9.826;2023-01-08T15:24:24;6.50;99.90
20141;DHT22;10231;47.702;9.826;2023-01-08T15:26:51;6.60;99.90
20141;DHT22;10231;47.702;9.826;2023-01-08T15:29:29;6.60;99.90
20141;DHT22;10231;47.702;9.826;2023-01-08T15:34:43;6.50;99.90
20141;DHT22;10231;47.702;9.826;2023-01-08T15:37:09;6.50;99.90
20141;DHT22;10231;47.702;9.826;2023-01-08T15:39:35;6.50;99.90
20141;DHT22;10231;47.702;9.826;2023-01-08T15:45:10;6.50;99.90
20141;DHT22;10231;47.702;9.826;2023-01-08T15:47:37;6.50;99.90
20141;DHT22;10231;47.702;9.826;2023-01-08T15:50:04;6.40;99.90
20141;DHT22;10231;47.702;9.826;2023-01-08T15:52:30;6.40;99.90
20141;DHT22;10231;47.702;9.826;2023-01-08T15:55:00;6.30;99.90
20141;DHT22;10231;47.702;9.826;2023-01-08T15:57:26;6.30;99.90
20141;DHT22;10231;47.702;9.826;2023-01-08T15:59:51;6.30;99.90
20141;DHT22;10231;47.702;9.826;2023-01-08T16:02:17;6.20;99.90
20141;DHT22;10231;47.702;9.826;2023-01-08T16:04:43;6.20;99.90
20141;DHT22;10231;47.702;9.826;2023-01-08T16:07:09;6.20;99.90
20141;DHT22;10231;47.702;9.826;2023-01-08T16:09:34;6.20;99.90
20141;DHT22;10231;47.702;9.826;2023-01-08T16:12:00;6.20;99.90
20141;DHT22;10231;47.702;9.826;2023-01-08T16:14:26;6.20;99.90
20141;DHT22;10231;47.702;9.826;2023-01-08T16:16:52;6.20;99.90
20141;DHT22;10231;47.702;9.826;2023-01-08T16:19:17;6.20;99.90
20141;DHT22;10231;47.702;9.826;2023-01-08T16:21:43;6.20;99.90
20141;DHT22;10231;47.702;9.826;2023-01-08T16:24:12;6.20;99.90
20141;DHT22;10231;47.702;9.826;2023-01-08T16:26:38;6.10;99.90
20141;DHT22;10231;47.702;9.826;2023-01-08T16:29:03;6.20;99.90
20141;DHT22;10231;47.702;9.826;2023-01-08T16:31:29;6.20;99.90
20141;DHT22;10231;47.702;9.826;2023-01-08T16:33:59;6.10;99.90
20141;DHT22;10231;47.702;9.826;2023-01-08T16:36:25;6.10;99.90
20141;DHT22;10231;47.702;9.826;2023-01-08T16:38:50;6.10;99.90
20141;DHT22;10231;47.702;9.826;2023-01-08T16:41:16;6.10;99.90
20141;DHT22;10231;47.702;9.826;2023-01-08T16:43:41;6.10;99.90
20141;DHT22;10231;47.702;9.826;2023-01-08T16:46:11;6.10;99.90
20141;DHT22;10231;47.702;9.826;2023-01-08T16:48:37;6.10;99.90
20141;DHT22;10231;47.702;9.826;2023-01-08T16:51:04;6.10;99.90
20141;DHT22;10231;47.702;9.826;2023-01-08T16:53:30;6.10;99.90
20141;DHT22;10231;47.702;9.826;2023-01-08T16:55:59;6.10;99.90
20141;DHT22;10231;47.702;9.826;2023-01-08T16:58:25;6.10;99.90
20141;DHT22;10231;47.702;9.826;2023-01-08T17:00:50;6.10;99.90
20141;DHT22;10231;47.702;9.826;2023-01-08T17:03:16;6.10;99.90
20141;DHT22;10231;47.702;9.826;2023-01-08T17:05:41;6.10;99.90
20141;DHT22;10231;47.702;9.826;2023-01-08T17:08:07;6.00;99.90
20141;DHT22;10231;47.702;9.826;2023-01-08T17:10:33;6.00;99.90
20141;DHT22;10231;47.702;9.826;2023-01-08T17:12:58;6.10;99.90
20141;DHT22;10231;47.702;9.826;2023-01-08T17:15:24;6.00;99.90